Time;durP1;ratioP1;P1;durP2;ratioP2;P2;SDS_P1;SDS_P2;PMS_P1;PMS_P2;Temp;Humidity;BMP_temperature;BMP_pressure;BME280_temperature;BME280_humidity;BME280_pressure;Samples;Min_cycle;Max_cycle;Signal;HPM_P1;HPM_P2
2022/10/23 00:00:57;;;;;;;8.32;3.75;;;13.20;99.90;;;;;;5058138;28;20053;-71
2022/10/23 00:03:22;;;;;;;8.65;3.65;;;13.20;99.90;;;;;;5053000;28;20582;-72
2022/10/23 00:05:48;;;;;;;11.82;3.83;;;13.20;99.90;;;;;;5058702;28;20119;-71
2022/10/23 00:08:13;;;;;;;9.50;4.03;;;13.10;99.90;;;;;;5056374;28;20050;-70
2022/10/23 00:10:41;;;;;;;11.60;3.75;;;13.10;99.90;;;;;;5055875;28;20044;-70
2022/10/23 00:13:07;;;;;;;8.98;4.03;;;13.10;99.90;;;;;;5055717;28;20852;-71
2022/10/23 00:15:35;;;;;;;8.70;3.35;;;13.10;99.90;;;;;;5055706;28;20040;-71
2022/10/23 00:18:01;;;;;;;9.60;3.42;;;13.00;99.90;;;;;;5055676;28;20127;-70
2022/10/23 00:20:26;;;;;;;9.43;3.88;;;13.00;99.90;;;;;;5055278;28;20124;-70
2022/10/23 00:22:52;;;;;;;7.57;3.63;;;13.00;99.90;;;;;;5056976;28;20545;-73
2022/10/23 00:25:19;;;;;;;7.40;3.35;;;13.10;99.90;;;;;;5056556;28;20037;-70
2022/10/23 00:27:44;;;;;;;10.93;3.42;;;13.10;99.90;;;;;;5054769;28;20515;-71
2022/10/23 00:30:10;;;;;;;10.32;3.45;;;13.10;99.90;;;;;;5055653;28;20037;-71
2022/10/23 00:32:36;;;;;;;9.32;3.80;;;13.10;99.90;;;;;;5055873;28;20037;-72
2022/10/23 00:35:02;;;;;;;10.07;3.45;;;13.10;99.90;;;;;;5055797;28;20039;-71
2022/10/23 00:37:28;;;;;;;9.18;4.00;;;13.10;99.90;;;;;;5055530;28;20397;-70
2022/10/23 00:39:54;;;;;;;9.88;3.67;;;13.10;99.90;;;;;;5059297;28;20028;-71
2022/10/23 00:42:20;;;;;;;7.97;3.33;;;13.10;99.90;;;;;;5058879;28;20404;-70
2022/10/23 00:44:46;;;;;;;8.48;3.83;;;13.20;99.90;;;;;;5055909;28;20044;-70
2022/10/23 00:47:12;;;;;;;8.18;4.15;;;13.10;99.90;;;;;;5054815;28;20427;-71
2022/10/23 00:49:38;;;;;;;8.73;3.33;;;13.10;99.90;;;;;;5054051;28;20045;-72
2022/10/23 00:52:07;;;;;;;20.17;3.78;;;13.10;99.90;;;;;;5055562;28;20029;-72
2022/10/23 00:54:37;;;;;;;11.85;3.15;;;13.10;99.90;;;;;;5053150;28;20484;-71
2022/10/23 00:57:04;;;;;;;5.85;3.58;;;13.10;99.90;;;;;;5056712;28;20045;-71
2022/10/23 00:59:31;;;;;;;13.77;5.07;;;13.10;99.90;;;;;;5055244;28;20110;-71
2022/10/23 01:01:57;;;;;;;9.23;3.72;;;13.10;99.90;;;;;;5054474;28;20048;-70
2022/10/23 01:04:24;;;;;;;7.78;3.53;;;13.00;99.90;;;;;;5054405;28;20116;-70
2022/10/23 01:07:09;;;;;;;11.38;3.80;;;13.00;99.90;;;;;;5054711;28;20561;-70
2022/10/23 01:10:04;;;;;;;10.10;3.47;;;13.00;99.90;;;;;;5053418;28;20041;-72
2022/10/23 01:12:54;;;;;;;8.65;3.95;;;13.00;99.90;;;;;;5056713;28;20086;-71
2022/10/23 01:15:31;;;;;;;14.30;3.92;;;13.00;99.90;;;;;;5054009;28;20043;-71
2022/10/23 01:18:11;;;;;;;10.65;3.92;;;13.00;99.90;;;;;;5054886;28;20422;-71
2022/10/23 01:20:42;;;;;;;;;;;13.00;99.90;;;;;;5055103;28;20058;-71
2022/10/23 01:23:37;;;;;;;13.23;3.63;;;13.00;99.90;;;;;;5056948;28;19974;-70
2022/10/23 01:26:30;;;;;;;8.80;3.17;;;13.00;99.90;;;;;;5057900;28;20029;-70
2022/10/23 01:29:11;;;;;;;10.30;3.38;;;13.00;99.90;;;;;;5053949;28;20060;-71
2022/10/23 01:32:00;;;;;;;7.32;3.53;;;12.90;99.90;;;;;;5056194;28;20047;-71
2022/10/23 01:34:55;;;;;;;11.45;3.83;;;12.90;99.90;;;;;;5052571;28;20127;-71
2022/10/23 01:37:40;;;;;;;11.20;4.30;;;12.90;99.90;;;;;;5046896;28;20032;-72
2022/10/23 01:40:29;;;;;;;9.75;3.67;;;12.80;99.90;;;;;;5055918;28;20036;-71
2022/10/23 01:43:01;;;;;;;10.82;3.83;;;12.80;99.90;;;;;;5052647;28;20112;-71
2022/10/23 01:45:40;;;;;;;9.05;3.20;;;12.80;99.90;;;;;;5052456;28;20041;-70
2022/10/23 01:48:10;;;;;;;7.40;2.93;;;12.80;99.90;;;;;;5056090;28;20040;-70
2022/10/23 01:50:38;;;;;;;8.20;3.47;;;12.90;99.90;;;;;;5054491;28;20040;-70
2022/10/23 01:53:04;;;;;;;8.27;3.33;;;12.80;99.90;;;;;;5053039;28;20771;-72
2022/10/23 01:55:31;;;;;;;11.77;3.25;;;12.80;99.90;;;;;;5051061;28;20043;-71
2022/10/23 01:57:59;;;;;;;10.65;3.55;;;12.80;99.90;;;;;;5055849;28;20104;-71
2022/10/23 02:00:25;;;;;;;8.13;3.10;;;12.80;99.90;;;;;;5053715;28;20036;-71
2022/10/23 02:02:52;;;;;;;13.40;4.28;;;12.80;99.90;;;;;;5052743;28;20128;-71
2022/10/23 02:05:22;;;;;;;7.97;3.60;;;12.80;99.90;;;;;;5053310;28;20024;-70
2022/10/23 02:07:49;;;;;;;11.20;4.45;;;12.80;99.90;;;;;;5052256;28;20036;-71
2022/10/23 02:10:15;;;;;;;13.52;3.58;;;12.70;99.90;;;;;;5055863;28;20100;-71
2022/10/23 02:13:00;;;;;;;7.70;3.03;;;12.80;99.90;;;;;;5054544;28;20121;-70
2022/10/23 02:15:28;;;;;;;11.10;3.63;;;12.80;99.90;;;;;;5052680;28;20041;-71
2022/10/23 02:18:18;;;;;;;6.43;3.17;;;12.70;99.90;;;;;;5056060;28;20029;-71
2022/10/23 02:20:55;;;;;;;7.15;3.47;;;12.70;99.90;;;;;;5051405;28;20515;-71
2022/10/23 02:23:34;;;;;;;6.03;3.10;;;12.70;99.90;;;;;;5053440;28;20120;-71
2022/10/23 02:26:15;;;;;;;7.65;3.63;;;12.70;99.90;;;;;;5057413;28;20024;-71
2022/10/23 02:28:50;;;;;;;11.00;3.10;;;12.70;99.90;;;;;;5055544;28;20131;-71
2022/10/23 02:31:19;;;;;;;10.43;3.63;;;12.70;99.90;;;;;;5053740;28;20032;-74
2022/10/23 02:33:46;;;;;;;9.88;3.33;;;12.60;99.90;;;;;;5055483;28;20043;-70
2022/10/23 02:36:12;;;;;;;8.75;3.00;;;12.60;99.90;;;;;;5052243;28;20672;-70
2022/10/23 02:38:41;;;;;;;5.75;2.75;;;12.60;99.90;;;;;;5054557;28;20040;-71
2022/10/23 02:41:29;;;;;;;9.02;3.65;;;12.60;99.90;;;;;;5053775;28;20029;-70
2022/10/23 02:44:13;;;;;;;10.13;3.70;;;12.60;99.90;;;;;;5052973;28;20048;-70
2022/10/23 02:47:09;;;;;;;11.38;3.17;;;12.60;99.90;;;;;;5056300;28;20043;-71
2022/10/23 02:49:37;;;;;;;9.68;2.80;;;12.60;99.90;;;;;;5054659;28;20481;-71
2022/10/23 02:52:28;;;;;;;9.02;3.42;;;12.60;99.90;;;;;;5053683;28;20033;-71
2022/10/23 02:55:16;;;;;;;8.38;4.07;;;12.70;99.90;;;;;;5054679;28;20033;-71
2022/10/23 02:57:55;;;;;;;9.40;3.83;;;12.60;99.90;;;;;;5053908;28;20100;-71
2022/10/23 03:00:22;;;;;;;8.40;3.55;;;12.60;99.90;;;;;;5057873;28;20044;-72
2022/10/23 03:03:15;;;;;;;8.30;3.42;;;12.60;99.90;;;;;;5057442;28;20119;-71
2022/10/23 03:05:43;;;;;;;9.45;3.22;;;12.60;99.90;;;;;;5054272;28;20599;-71
2022/10/23 03:08:11;;;;;;;7.10;2.72;;;12.60;99.90;;;;;;5058690;28;20033;-70
2022/10/23 03:10:37;;;;;;;10.25;3.30;;;12.60;99.90;;;;;;5055728;28;20041;-69
2022/10/23 03:13:03;;;;;;;4.93;3.05;;;12.60;99.90;;;;;;5059491;28;20032;-71
2022/10/23 03:15:28;;;;;;;11.75;3.40;;;12.60;99.90;;;;;;5055812;28;20036;-71
2022/10/23 03:17:54;;;;;;;6.30;3.13;;;12.60;99.90;;;;;;5058775;28;20079;-72
2022/10/23 03:20:20;;;;;;;15.43;3.20;;;12.60;99.90;;;;;;5057649;28;20068;-70
2022/10/23 03:22:45;;;;;;;8.25;2.60;;;12.60;99.90;;;;;;5056972;28;20033;-70
2022/10/23 03:25:11;;;;;;;9.07;3.10;;;12.60;99.90;;;;;;5059426;28;20056;-72
2022/10/23 03:27:36;;;;;;;7.22;2.60;;;12.60;99.90;;;;;;5057756;28;20040;-70
2022/10/23 03:30:03;;;;;;;11.27;3.92;;;12.60;99.90;;;;;;5056533;28;20099;-71
2022/10/23 03:32:29;;;;;;;7.20;2.53;;;12.60;99.90;;;;;;5056204;28;20059;-71
2022/10/23 03:34:54;;;;;;;7.07;2.75;;;12.70;99.90;;;;;;5055852;28;20032;-70
2022/10/23 03:37:20;;;;;;;12.05;3.08;;;12.60;99.90;;;;;;5056479;28;20547;-71
2022/10/23 03:39:45;;;;;;;12.40;3.13;;;12.60;99.90;;;;;;5058670;28;20039;-70
2022/10/23 03:42:11;;;;;;;8.93;2.65;;;12.70;99.90;;;;;;5056255;28;20536;-71
2022/10/23 03:44:37;;;;;;;13.18;3.83;;;12.70;99.90;;;;;;5057586;28;20033;-70
2022/10/23 03:47:02;;;;;;;9.40;3.05;;;12.70;99.90;;;;;;5056595;28;20374;-71
2022/10/23 03:49:28;;;;;;;7.28;2.92;;;12.70;99.90;;;;;;5056010;28;20173;-71
2022/10/23 03:51:56;;;;;;;16.80;3.47;;;12.70;99.90;;;;;;5058166;28;20044;-70
2022/10/23 03:54:24;;;;;;;5.03;2.75;;;12.70;99.90;;;;;;5055362;28;20033;-72
2022/10/23 03:56:50;;;;;;;7.90;2.88;;;12.70;99.90;;;;;;5057644;28;20083;-70
2022/10/23 03:59:16;;;;;;;11.32;2.53;;;12.60;99.90;;;;;;5056064;28;20036;-71
2022/10/23 04:01:42;;;;;;;5.95;2.90;;;12.60;99.90;;;;;;5055908;28;20029;-70
2022/10/23 04:04:07;;;;;;;7.93;2.63;;;12.70;99.90;;;;;;5057888;28;20044;-71
2022/10/23 04:06:33;;;;;;;7.82;2.85;;;12.70;99.90;;;;;;5054798;28;20032;-71
2022/10/23 04:08:59;;;;;;;9.48;3.47;;;12.60;99.90;;;;;;5056655;28;20111;-71
2022/10/23 04:11:25;;;;;;;7.57;2.92;;;12.60;99.90;;;;;;5055305;28;20473;-71
2022/10/23 04:13:50;;;;;;;8.00;2.95;;;12.60;99.90;;;;;;5056328;28;20056;-71
2022/10/23 04:16:16;;;;;;;12.18;3.28;;;12.60;99.90;;;;;;5056950;28;20441;-75
2022/10/23 04:18:42;;;;;;;6.85;2.92;;;12.60;99.90;;;;;;5055893;28;20045;-71
2022/10/23 04:21:08;;;;;;;6.80;2.60;;;12.70;99.90;;;;;;5058341;28;20378;-70
2022/10/23 04:23:34;;;;;;;8.10;2.83;;;12.70;99.90;;;;;;5051783;28;20036;-70
2022/10/23 04:25:59;;;;;;;7.30;2.97;;;12.70;99.90;;;;;;5057886;28;20040;-72
2022/10/23 04:28:25;;;;;;;5.75;2.80;;;12.70;99.90;;;;;;5056460;28;20036;-70
2022/10/23 04:30:51;;;;;;;12.45;2.90;;;12.70;99.90;;;;;;5056575;28;20032;-71
2022/10/23 04:33:17;;;;;;;7.65;3.00;;;12.70;99.90;;;;;;5053953;28;20040;-72
2022/10/23 04:35:42;;;;;;;3.95;2.00;;;12.80;99.90;;;;;;5055526;28;20058;-70
2022/10/23 04:38:08;;;;;;;8.43;2.72;;;12.80;99.90;;;;;;5054947;28;20037;-71
2022/10/23 04:40:34;;;;;;;9.68;3.40;;;12.90;99.90;;;;;;5053963;28;20029;-72
2022/10/23 04:42:59;;;;;;;10.10;2.88;;;12.80;99.90;;;;;;5056376;28;20044;-71
2022/10/23 04:45:25;;;;;;;11.75;2.85;;;12.80;99.90;;;;;;5052536;28;20527;-71
2022/10/23 04:47:52;;;;;;;8.70;2.80;;;12.80;99.90;;;;;;5059190;28;20059;-71
2022/10/23 04:50:19;;;;;;;8.57;2.50;;;12.90;99.90;;;;;;5055789;28;20029;-70
2022/10/23 04:52:45;;;;;;;11.60;2.92;;;12.90;99.90;;;;;;5056450;28;20060;-71
2022/10/23 04:55:10;;;;;;;9.48;2.85;;;13.00;99.90;;;;;;5055174;28;20071;-71
2022/10/23 04:57:37;;;;;;;10.27;2.78;;;13.00;99.90;;;;;;5056531;28;20114;-71
2022/10/23 05:00:07;;;;;;;5.75;2.22;;;13.10;99.90;;;;;;5054866;28;20059;-70
2022/10/23 05:02:33;;;;;;;11.85;2.47;;;13.10;99.90;;;;;;5053335;28;20056;-71
2022/10/23 05:04:59;;;;;;;7.00;2.88;;;13.10;99.90;;;;;;5054660;28;20492;-71
2022/10/23 05:07:24;;;;;;;6.35;2.72;;;13.00;99.90;;;;;;5056485;28;20115;-70
2022/10/23 05:09:50;;;;;;;7.22;2.45;;;13.10;99.90;;;;;;5055911;28;20116;-70
2022/10/23 05:12:15;;;;;;;8.10;2.53;;;13.10;99.90;;;;;;5054346;28;20033;-70
2022/10/23 05:14:41;;;;;;;4.88;3.00;;;13.10;99.90;;;;;;5055212;28;20045;-70
2022/10/23 05:17:17;;;;;;;9.43;3.08;;;13.10;99.90;;;;;;5053754;28;20040;-69
2022/10/23 05:19:56;;;;;;;8.15;2.13;;;13.20;99.90;;;;;;5054975;28;20075;-71
2022/10/23 05:22:26;;;;;;;7.35;2.53;;;13.20;99.90;;;;;;5055362;28;20048;-72
2022/10/23 05:24:52;;;;;;;9.90;1.95;;;13.30;99.90;;;;;;5057628;28;20033;-71
2022/10/23 05:27:18;;;;;;;4.18;2.35;;;13.40;99.90;;;;;;5058977;28;20032;-71
2022/10/23 05:29:43;;;;;;;8.48;2.47;;;13.40;99.90;;;;;;5058155;28;20028;-71
2022/10/23 05:32:12;;;;;;;5.78;2.63;;;13.40;99.90;;;;;;5055444;28;20049;-71
2022/10/23 05:34:39;;;;;;;10.77;2.58;;;13.30;99.90;;;;;;5055203;28;20028;-71
2022/10/23 05:37:07;;;;;;;6.57;2.47;;;13.30;99.90;;;;;;5054787;28;20515;-70
2022/10/23 05:39:33;;;;;;;8.52;2.92;;;13.30;99.90;;;;;;5054945;28;20090;-71
2022/10/23 05:41:59;;;;;;;7.30;2.10;;;13.30;99.90;;;;;;5053826;28;20028;-71
2022/10/23 05:44:24;;;;;;;9.80;2.88;;;13.30;99.90;;;;;;5054448;28;20044;-71
2022/10/23 05:46:50;;;;;;;4.78;2.40;;;13.30;99.90;;;;;;5054773;28;20072;-71
2022/10/23 05:49:16;;;;;;;7.55;2.58;;;13.30;99.90;;;;;;5054633;28;20397;-71
2022/10/23 05:51:41;;;;;;;11.13;3.20;;;13.30;99.90;;;;;;5053605;28;20119;-71
2022/10/23 05:54:07;;;;;;;10.88;2.40;;;13.20;99.90;;;;;;5052557;28;20021;-70
2022/10/23 05:56:38;;;;;;;7.85;2.42;;;13.20;99.90;;;;;;5056089;28;20493;-70
2022/10/23 05:59:04;;;;;;;12.18;2.95;;;13.20;99.90;;;;;;5054312;28;20025;-71
2022/10/23 06:01:30;;;;;;;5.63;2.15;;;13.20;99.90;;;;;;5055044;28;20036;-70
2022/10/23 06:03:57;;;;;;;7.82;2.30;;;13.10;99.90;;;;;;5051750;28;20059;-71
2022/10/23 06:06:23;;;;;;;4.72;2.33;;;13.20;99.90;;;;;;5051636;28;20044;-71
2022/10/23 06:08:48;;;;;;;8.57;2.60;;;13.10;99.90;;;;;;5060721;28;20440;-73
2022/10/23 06:11:14;;;;;;;8.45;2.38;;;13.20;99.90;;;;;;5055380;28;20111;-71
2022/10/23 06:13:44;;;;;;;5.70;2.25;;;13.20;99.90;;;;;;5056431;28;20044;-73
2022/10/23 06:16:15;;;;;;;13.15;2.55;;;13.10;99.90;;;;;;5059288;28;20125;-73
2022/10/23 06:18:41;;;;;;;12.75;2.65;;;13.20;99.90;;;;;;5053355;28;20068;-71
2022/10/23 06:21:07;;;;;;;8.88;2.55;;;13.20;99.90;;;;;;5054461;28;20075;-71
2022/10/23 06:23:35;;;;;;;4.13;1.98;;;13.20;99.90;;;;;;5049981;28;20063;-71
2022/10/23 06:26:01;;;;;;;7.30;2.15;;;13.20;99.90;;;;;;5060599;28;20503;-71
2022/10/23 06:28:26;;;;;;;7.18;2.55;;;13.20;99.90;;;;;;5056826;28;20037;-70
2022/10/23 06:30:52;;;;;;;5.45;2.08;;;13.10;99.90;;;;;;5055996;28;20036;-72
2022/10/23 06:33:18;;;;;;;4.80;2.20;;;13.10;99.90;;;;;;5055089;28;20028;-71
2022/10/23 06:35:43;;;;;;;7.20;2.20;;;13.10;99.90;;;;;;5059577;28;20044;-71
2022/10/23 06:38:09;;;;;;;9.30;2.65;;;13.20;99.90;;;;;;5059841;28;20033;-70
2022/10/23 06:40:36;;;;;;;5.00;2.28;;;13.10;99.90;;;;;;5070087;28;20043;-71
2022/10/23 06:43:03;;;;;;;7.50;2.13;;;13.20;99.90;;;;;;5067569;28;20124;-71
2022/10/23 06:45:32;;;;;;;10.68;2.28;;;13.20;99.90;;;;;;5054586;28;20441;-70
2022/10/23 06:47:58;;;;;;;5.50;2.15;;;13.10;99.90;;;;;;5067098;28;20040;-70
2022/10/23 06:50:24;;;;;;;11.82;2.30;;;13.20;99.90;;;;;;5061568;28;20415;-70
2022/10/23 06:52:50;;;;;;;7.43;2.47;;;13.20;99.90;;;;;;5058646;28;20060;-71
2022/10/23 06:55:16;;;;;;;4.20;2.10;;;13.20;99.90;;;;;;5064155;28;20055;-71
2022/10/23 06:57:42;;;;;;;7.70;2.67;;;13.20;99.90;;;;;;5059259;28;20057;-71
2022/10/23 07:00:08;;;;;;;8.10;2.35;;;13.10;99.90;;;;;;5057618;28;20174;-70
2022/10/23 07:02:34;;;;;;;8.07;1.95;;;13.20;99.90;;;;;;5059946;28;20139;-71
2022/10/23 07:05:00;;;;;;;9.55;2.10;;;13.20;99.90;;;;;;5065383;28;20123;-70
2022/10/23 07:07:28;;;;;;;7.95;2.30;;;13.20;99.90;;;;;;5055285;28;20037;-71
2022/10/23 07:09:53;;;;;;;9.25;2.60;;;13.20;99.90;;;;;;5056069;28;20037;-70
2022/10/23 07:12:19;;;;;;;5.97;2.25;;;13.20;99.90;;;;;;5061741;27;20058;-71
2022/10/23 07:14:44;;;;;;;6.72;2.67;;;13.20;99.90;;;;;;5058021;28;20124;-70
2022/10/23 07:17:10;;;;;;;7.00;2.67;;;13.30;99.90;;;;;;5056549;28;20056;-69
2022/10/23 07:19:35;;;;;;;6.18;2.55;;;13.30;99.90;;;;;;5057092;28;20056;-70
2022/10/23 07:22:01;;;;;;;8.00;2.10;;;13.30;99.90;;;;;;5060606;28;20074;-71
2022/10/23 07:24:27;;;;;;;10.73;2.30;;;13.40;99.90;;;;;;5063303;28;20045;-71
2022/10/23 07:26:52;;;;;;;7.03;2.40;;;13.30;99.90;;;;;;5066230;28;20039;-72
2022/10/23 07:29:18;;;;;;;8.00;2.50;;;13.40;99.90;;;;;;5067430;28;20075;-71
2022/10/23 07:31:43;;;;;;;5.07;2.28;;;13.40;99.90;;;;;;5065590;28;20123;-71
2022/10/23 07:34:09;;;;;;;5.85;2.25;;;13.50;99.90;;;;;;5054246;28;20102;-70
2022/10/23 07:36:35;;;;;;;6.93;2.47;;;13.60;99.90;;;;;;5056663;28;20124;-71
2022/10/23 07:39:01;;;;;;;10.85;2.50;;;13.60;99.90;;;;;;5055088;28;20110;-70
2022/10/23 07:41:26;;;;;;;11.50;2.40;;;13.60;99.90;;;;;;5054074;28;20033;-71
2022/10/23 07:43:52;;;;;;;6.25;1.88;;;13.60;99.90;;;;;;5052471;28;20079;-72
2022/10/23 07:46:17;;;;;;;7.13;2.50;;;13.60;99.90;;;;;;5056836;28;20056;-72
2022/10/23 07:48:43;;;;;;;7.28;2.88;;;13.60;99.90;;;;;;5057740;28;20068;-71
2022/10/23 07:51:14;;;;;;;10.60;2.85;;;13.60;99.90;;;;;;5051968;28;20645;-71
2022/10/23 07:53:40;;;;;;;5.00;2.22;;;13.60;99.90;;;;;;5053463;28;20045;-71
2022/10/23 07:56:15;;;;;;;6.07;2.20;;;13.60;99.90;;;;;;5069310;28;20037;-71
2022/10/23 07:58:41;;;;;;;7.13;2.63;;;13.80;99.90;;;;;;5070043;28;20044;-71
2022/10/23 08:01:18;;;;;;;5.97;2.20;;;13.80;99.90;;;;;;5069765;28;20048;-71
2022/10/23 08:03:45;;;;;;;4.82;2.15;;;13.80;99.90;;;;;;5074794;28;20043;-70
2022/10/23 08:06:10;;;;;;;5.22;2.00;;;13.90;99.90;;;;;;5081020;28;20559;-71
2022/10/23 08:08:36;;;;;;;5.53;1.90;;;13.80;99.90;;;;;;5067983;28;22938;-70
2022/10/23 08:11:02;;;;;;;10.77;2.45;;;13.90;99.90;;;;;;5067987;28;20061;-70
2022/10/23 08:13:27;;;;;;;8.73;3.10;;;13.90;99.90;;;;;;5065458;28;20520;-71
2022/10/23 08:15:54;;;;;;;9.32;2.45;;;13.90;99.90;;;;;;5067655;28;20033;-71
2022/10/23 08:18:20;;;;;;;4.07;1.67;;;13.90;99.90;;;;;;5066952;28;20050;-69
2022/10/23 08:20:47;;;;;;;12.73;2.78;;;13.90;99.90;;;;;;5077277;28;20079;-71
2022/10/23 08:23:16;;;;;;;10.30;1.98;;;13.90;99.90;;;;;;5075858;28;20047;-71
2022/10/23 08:25:41;;;;;;;11.85;2.33;;;13.90;99.90;;;;;;5070382;28;20872;-72
2022/10/23 08:28:08;;;;;;;10.23;2.10;;;14.00;99.90;;;;;;5064729;28;20045;-72
2022/10/23 08:30:34;;;;;;;4.72;1.88;;;14.00;99.90;;;;;;5067362;28;20051;-72
2022/10/23 08:33:02;;;;;;;6.15;2.50;;;14.00;99.90;;;;;;5052557;28;20060;-69
2022/10/23 08:35:28;;;;;;;5.57;2.13;;;14.10;99.90;;;;;;5049944;27;20346;-70
2022/10/23 08:37:54;;;;;;;8.18;2.75;;;14.10;99.90;;;;;;5068102;28;20127;-71
2022/10/23 08:40:23;;;;;;;6.90;2.00;;;14.10;99.90;;;;;;5063402;28;20041;-69
2022/10/23 08:43:20;;;;;;;5.70;1.60;;;14.10;99.90;;;;;;5064339;28;20039;-69
2022/10/23 08:45:58;;;;;;;6.50;2.20;;;14.20;99.90;;;;;;5075409;28;20028;-71
2022/10/23 08:48:36;;;;;;;6.18;2.00;;;14.20;99.90;;;;;;5063841;28;20142;-71
2022/10/23 08:51:22;;;;;;;6.47;2.53;;;14.30;99.90;;;;;;5060416;28;20048;-71
2022/10/23 08:53:53;;;;;;;6.13;1.85;;;14.20;99.90;;;;;;5060580;28;20045;-73
2022/10/23 08:56:31;;;;;;;13.98;2.58;;;14.20;99.90;;;;;;5063517;28;20385;-72
2022/10/23 08:59:23;;;;;;;3.35;1.70;;;14.30;99.90;;;;;;5055833;28;20053;-71
2022/10/23 09:01:52;;;;;;;6.10;2.45;;;14.30;99.90;;;;;;5068314;28;20039;-73
2022/10/23 09:04:18;;;;;;;7.13;2.13;;;14.40;99.90;;;;;;5062325;28;20520;-71
2022/10/23 09:07:15;;;;;;;10.05;2.42;;;14.40;99.90;;;;;;5064498;28;20532;-72
2022/10/23 09:09:47;;;;;;;8.55;1.77;;;14.60;99.90;;;;;;5061486;28;20109;-70
2022/10/23 09:12:21;;;;;;;6.32;2.25;;;14.60;99.90;;;;;;5068799;28;20056;-71
2022/10/23 09:14:58;;;;;;;4.35;1.80;;;14.60;99.90;;;;;;5060021;28;20044;-70
2022/10/23 09:17:30;;;;;;;6.68;2.55;;;14.50;99.90;;;;;;5068200;28;20032;-72
2022/10/23 09:20:26;;;;;;;4.25;1.75;;;14.60;99.90;;;;;;5066474;28;20064;-72
2022/10/23 09:22:59;;;;;;;5.10;1.85;;;14.60;99.90;;;;;;5069271;28;20032;-71
2022/10/23 09:25:38;;;;;;;7.22;2.33;;;14.60;99.90;;;;;;5061786;28;20439;-74
2022/10/23 09:28:04;;;;;;;4.47;1.80;;;14.60;99.90;;;;;;5066358;28;20039;-71
2022/10/23 09:30:41;;;;;;;4.97;1.95;;;14.60;99.90;;;;;;5063944;28;20041;-72
2022/10/23 09:33:13;;;;;;;6.47;1.92;;;14.60;99.90;;;;;;5082554;28;20040;-70
2022/10/23 09:35:49;;;;;;;4.75;1.45;;;14.60;99.90;;;;;;5063104;28;20066;-70
2022/10/23 09:38:36;;;;;;;5.20;1.92;;;14.60;99.90;;;;;;5071629;28;20047;-71
2022/10/23 09:41:11;;;;;;;7.80;2.03;;;14.70;99.90;;;;;;5061831;28;20032;-72
2022/10/23 09:43:36;;;;;;;9.60;2.28;;;14.70;99.90;;;;;;5064090;28;20110;-73
2022/10/23 09:46:05;;;;;;;4.07;1.40;;;14.70;99.90;;;;;;5056380;28;20421;-72
2022/10/23 09:48:31;;;;;;;8.90;2.42;;;14.70;99.90;;;;;;5054431;28;20032;-72
2022/10/23 09:51:20;;;;;;;5.82;1.90;;;14.70;99.90;;;;;;5062604;28;20063;-68
2022/10/23 09:53:48;;;;;;;7.32;1.67;;;14.80;99.90;;;;;;5048431;28;20405;-71
2022/10/23 09:56:26;;;;;;;5.10;1.63;;;14.80;99.90;;;;;;5053828;28;20397;-72
2022/10/23 09:59:10;;;;;;;7.13;1.50;;;14.80;99.90;;;;;;5051735;28;20398;-70
2022/10/23 10:01:46;;;;;;;3.17;1.63;;;14.80;99.90;;;;;;5055981;28;20045;-70
2022/10/23 10:04:12;;;;;;;3.92;1.13;;;14.80;99.90;;;;;;5073613;28;20614;-72
2022/10/23 10:06:38;;;;;;;1.70;1.15;;;14.90;99.90;;;;;;5065046;28;20067;-71
2022/10/23 10:09:15;;;;;;;5.60;1.77;;;14.90;99.90;;;;;;5067943;28;20056;-71
2022/10/23 10:11:45;;;;;;;3.60;1.38;;;15.00;99.90;;;;;;5068492;28;20044;-72
2022/10/23 10:14:41;;;;;;;5.25;1.60;;;15.00;99.90;;;;;;5066447;28;20044;-70
2022/10/23 10:17:25;;;;;;;7.57;1.25;;;15.10;99.90;;;;;;5072789;28;20036;-71
2022/10/23 10:20:18;;;;;;;2.92;1.52;;;15.10;99.90;;;;;;5071060;28;20063;-71
2022/10/23 10:22:56;;;;;;;5.70;1.52;;;15.20;99.90;;;;;;5070578;28;20048;-70
2022/10/23 10:25:27;;;;;;;7.20;2.10;;;15.20;99.90;;;;;;5064480;28;20047;-71
2022/10/23 10:27:59;;;;;;;3.63;1.38;;;15.30;99.90;;;;;;5072106;28;20072;-72
2022/10/23 10:30:33;;;;;;;2.65;1.50;;;15.20;99.90;;;;;;5069188;28;20105;-71
2022/10/23 10:33:21;;;;;;;7.93;2.17;;;15.30;99.90;;;;;;5068749;28;20043;-70
2022/10/23 10:36:12;;;;;;;3.47;1.48;;;15.30;99.90;;;;;;5069382;28;20066;-70
2022/10/23 10:38:40;;;;;;;7.07;1.90;;;15.30;99.90;;;;;;5067792;28;20424;-70
2022/10/23 10:41:09;;;;;;;5.22;2.05;;;15.50;99.90;;;;;;5070896;28;20054;-71
2022/10/23 10:44:00;;;;;;;4.82;1.40;;;15.50;99.90;;;;;;5069267;28;20057;-71
2022/10/23 10:46:41;;;;;;;5.20;1.48;;;15.60;99.90;;;;;;5054154;28;20032;-73
2022/10/23 10:49:14;;;;;;;7.13;1.65;;;15.60;99.90;;;;;;5069769;28;20056;-72
2022/10/23 10:51:49;;;;;;;6.93;2.17;;;15.60;99.90;;;;;;5066681;28;20048;-72
2022/10/23 10:54:35;;;;;;;3.58;1.52;;;15.60;99.90;;;;;;5064173;28;20047;-72
2022/10/23 10:57:12;;;;;;;6.55;1.92;;;15.50;99.90;;;;;;5068498;28;20055;-72
2022/10/23 10:59:42;;;;;;;4.32;1.38;;;15.60;99.90;;;;;;5066460;28;20048;-72
2022/10/23 11:02:20;;;;;;;5.18;1.67;;;15.70;99.90;;;;;;5068171;28;20192;-70
2022/10/23 11:04:56;;;;;;;8.25;1.77;;;15.70;99.90;;;;;;5069566;28;20034;-71
2022/10/23 11:07:26;;;;;;;5.47;1.65;;;15.80;99.90;;;;;;5068296;28;20056;-70
2022/10/23 11:09:52;;;;;;;4.38;1.77;;;15.90;99.90;;;;;;5066834;28;20413;-71
2022/10/23 11:12:25;;;;;;;6.40;1.38;;;15.90;99.90;;;;;;5071683;28;20086;-70
2022/10/23 11:14:51;;;;;;;1.92;1.15;;;15.90;99.90;;;;;;5068384;28;20044;-71
2022/10/23 11:17:24;;;;;;;3.05;1.30;;;16.00;99.90;;;;;;5065464;28;20450;-70
2022/10/23 11:20:19;;;;;;;4.03;1.27;;;16.10;99.90;;;;;;5066858;28;20039;-70
2022/10/23 11:22:51;;;;;;;4.80;1.40;;;16.10;99.90;;;;;;5072246;28;20144;-70
2022/10/23 11:25:56;;;;;;;9.25;1.15;;;16.10;99.90;;;;;;5064258;28;20086;-69
2022/10/23 11:28:27;;;;;;;5.07;1.63;;;16.20;99.90;;;;;;5066754;28;20443;-72
2022/10/23 11:31:00;;;;;;;5.65;1.40;;;16.20;99.90;;;;;;5070325;28;20063;-71
2022/10/23 11:34:01;;;;;;;5.25;1.60;;;16.20;99.90;;;;;;5061425;28;20166;-73
2022/10/23 11:36:43;;;;;;;;;;;16.30;99.90;;;;;;5063296;28;20041;-70
2022/10/23 11:39:22;;;;;;;4.97;1.45;;;16.40;99.90;;;;;;5065501;28;19924;-70
2022/10/23 11:41:53;;;;;;;6.32;1.23;;;16.40;99.90;;;;;;5062173;28;20098;-71
2022/10/23 11:44:48;;;;;;;3.67;1.77;;;16.60;99.90;;;;;;5065244;28;20045;-72
2022/10/23 11:47:37;;;;;;;8.05;1.20;;;16.70;99.90;;;;;;5061706;28;20036;-71
2022/10/23 11:50:15;;;;;;;3.22;1.33;;;16.80;99.90;;;;;;5062479;28;20384;-71
2022/10/23 11:52:57;;;;;;;4.20;1.33;;;16.80;99.90;;;;;;5065393;28;20044;-72
2022/10/23 11:55:28;;;;;;;6.53;1.45;;;16.90;99.90;;;;;;5069904;28;20185;-74
2022/10/23 11:58:06;;;;;;;5.55;1.40;;;16.90;99.90;;;;;;5072230;28;20111;-73
2022/10/23 12:00:48;;;;;;;5.65;1.00;;;16.90;99.90;;;;;;5069079;28;20037;-73
2022/10/23 12:03:24;;;;;;;2.03;0.73;;;17.00;99.90;;;;;;5063813;28;20048;-72
2022/10/23 12:05:59;;;;;;;6.18;1.30;;;17.00;99.90;;;;;;5052710;28;20476;-72
2022/10/23 12:08:28;;;;;;;4.07;0.98;;;17.00;99.90;;;;;;5052122;28;20036;-72
2022/10/23 12:10:55;;;;;;;3.38;1.13;;;17.00;99.90;;;;;;5057617;28;20069;-70
2022/10/23 12:13:47;;;;;;;3.42;1.25;;;17.10;99.90;;;;;;5053896;28;20063;-71
2022/10/23 12:16:13;;;;;;;4.93;1.20;;;17.00;99.90;;;;;;5053444;28;20124;-71
2022/10/23 12:18:50;;;;;;;7.05;1.35;;;17.10;99.90;;;;;;5053421;28;20477;-70
2022/10/23 12:21:19;;;;;;;3.67;1.10;;;17.00;99.90;;;;;;5055590;28;20139;-72
2022/10/23 12:23:58;;;;;;;6.40;1.25;;;17.10;99.90;;;;;;5056557;28;20108;-70
2022/10/23 12:27:01;;;;;;;3.80;1.20;;;17.10;99.90;;;;;;5057475;28;20416;-73
2022/10/23 12:29:58;;;;;;;3.08;1.10;;;17.10;99.90;;;;;;5054593;28;20401;-71
2022/10/23 12:32:32;;;;;;;4.28;1.20;;;17.20;99.90;;;;;;5046299;28;20527;-73
2022/10/23 12:35:25;;;;;;;4.75;0.90;;;17.20;99.90;;;;;;5055906;28;20167;-70
2022/10/23 12:37:56;;;;;;;7.00;0.93;;;17.20;99.90;;;;;;5053905;28;20052;-71
2022/10/23 12:40:28;;;;;;;4.75;1.30;;;17.20;99.90;;;;;;5055884;28;20140;-72
2022/10/23 12:42:56;;;;;;;4.88;1.20;;;17.20;99.90;;;;;;5054214;28;20048;-72
2022/10/23 12:45:25;;;;;;;2.83;1.30;;;17.30;99.90;;;;;;5057044;28;20070;-70
2022/10/23 12:47:52;;;;;;;5.85;1.20;;;17.30;99.90;;;;;;5055256;28;20044;-70
2022/10/23 12:50:27;;;;;;;3.45;1.02;;;17.30;99.90;;;;;;5054422;28;20126;-74
2022/10/23 12:53:01;;;;;;;3.22;1.20;;;17.40;99.90;;;;;;5053549;28;20075;-72
2022/10/23 12:55:43;;;;;;;2.92;0.93;;;17.40;99.90;;;;;;5056690;28;20032;-70
2022/10/23 12:58:18;;;;;;;3.92;1.13;;;17.40;99.90;;;;;;5053264;28;20040;-70
2022/10/23 13:00:59;;;;;;;8.00;1.13;;;17.40;99.90;;;;;;5056657;28;20040;-69
2022/10/23 13:03:26;;;;;;;4.70;1.63;;;17.40;99.90;;;;;;5054041;28;20040;-71
2022/10/23 13:05:54;;;;;;;4.30;1.15;;;17.40;99.90;;;;;;5061945;28;20036;-70
2022/10/23 13:08:21;;;;;;;6.75;1.70;;;17.50;99.90;;;;;;5054173;28;20079;-69